sensor_id;sensor_type;location;lat;lon;timestamp;P1;durP1;ratioP1;P2;durP2;ratioP2
76053;SDS011;64752;48.870;9.082;2023-04-25T00:02:23;4.95;;;3.10;;
76053;SDS011;64752;48.870;9.082;2023-04-25T00:04:49;5.38;;;3.05;;
76053;SDS011;64752;48.870;9.082;2023-04-25T00:07:15;7.82;;;3.38;;
76053;SDS011;64752;48.870;9.082;2023-04-25T00:09:41;6.43;;;3.70;;
76053;SDS011;64752;48.870;9.082;2023-04-25T00:12:06;4.93;;;3.25;;
76053;SDS011;64752;48.870;9.082;2023-04-25T00:14:31;7.10;;;3.20;;
76053;SDS011;64752;48.870;9.082;2023-04-25T00:16:59;5.80;;;3.28;;
76053;SDS011;64752;48.870;9.082;2023-04-25T00:19:24;4.78;;;3.35;;
76053;SDS011;64752;48.870;9.082;2023-04-25T00:24:16;5.55;;;3.30;;
76053;SDS011;64752;48.870;9.082;2023-04-25T00:26:42;4.93;;;3.03;;
76053;SDS011;64752;48.870;9.082;2023-04-25T00:29:07;3.40;;;2.55;;
76053;SDS011;64752;48.870;9.082;2023-04-25T00:31:32;5.15;;;2.90;;
76053;SDS011;64752;48.870;9.082;2023-04-25T00:33:58;5.20;;;3.38;;
76053;SDS011;64752;48.870;9.082;2023-04-25T00:36:23;3.90;;;2.97;;
76053;SDS011;64752;48.870;9.082;2023-04-25T00:38:48;5.20;;;2.85;;
76053;SDS011;64752;48.870;9.082;2023-04-25T00:41:13;4.22;;;3.20;;
76053;SDS011;64752;48.870;9.082;2023-04-25T00:43:39;6.70;;;3.65;;
76053;SDS011;64752;48.870;9.082;2023-04-25T00:46:05;5.18;;;3.38;;
76053;SDS011;64752;48.870;9.082;2023-04-25T00:48:30;4.90;;;2.85;;
76053;SDS011;64752;48.870;9.082;2023-04-25T00:50:57;9.15;;;3.40;;
76053;SDS011;64752;48.870;9.082;2023-04-25T00:55:47;6.87;;;3.50;;
76053;SDS011;64752;48.870;9.082;2023-04-25T00:58:15;4.10;;;2.95;;
76053;SDS011;64752;48.870;9.082;2023-04-25T01:00:41;6.85;;;3.30;;
76053;SDS011;64752;48.870;9.082;2023-04-25T01:03:06;6.90;;;3.55;;
76053;SDS011;64752;48.870;9.082;2023-04-25T01:05:33;6.32;;;3.35;;
76053;SDS011;64752;48.870;9.082;2023-04-25T01:07:58;3.60;;;2.80;;
76053;SDS011;64752;48.870;9.082;2023-04-25T01:10:23;5.68;;;2.97;;
76053;SDS011;64752;48.870;9.082;2023-04-25T01:12:49;3.70;;;2.60;;
76053;SDS011;64752;48.870;9.082;2023-04-25T01:15:14;5.05;;;2.95;;
76053;SDS011;64752;48.870;9.082;2023-04-25T01:17:40;5.28;;;2.75;;
76053;SDS011;64752;48.870;9.082;2023-04-25T01:20:06;5.65;;;3.15;;
76053;SDS011;64752;48.870;9.082;2023-04-25T01:22:32;6.85;;;3.28;;
76053;SDS011;64752;48.870;9.082;2023-04-25T01:24:58;6.10;;;3.20;;
76053;SDS011;64752;48.870;9.082;2023-04-25T01:27:23;4.07;;;2.88;;
76053;SDS011;64752;48.870;9.082;2023-04-25T01:29:50;6.47;;;3.00;;
76053;SDS011;64752;48.870;9.082;2023-04-25T01:32:15;5.68;;;3.13;;
76053;SDS011;64752;48.870;9.082;2023-04-25T01:34:41;6.13;;;3.53;;
76053;SDS011;64752;48.870;9.082;2023-04-25T01:37:06;4.28;;;2.78;;
76053;SDS011;64752;48.870;9.082;2023-04-25T01:39:31;4.88;;;3.40;;
76053;SDS011;64752;48.870;9.082;2023-04-25T01:41:57;5.60;;;3.15;;
76053;SDS011;64752;48.870;9.082;2023-04-25T01:44:22;4.43;;;2.92;;
76053;SDS011;64752;48.870;9.082;2023-04-25T01:46:48;6.97;;;3.58;;
76053;SDS011;64752;48.870;9.082;2023-04-25T01:49:13;5.88;;;3.33;;
76053;SDS011;64752;48.870;9.082;2023-04-25T01:51:38;6.35;;;3.63;;
76053;SDS011;64752;48.870;9.082;2023-04-25T01:54:03;5.18;;;2.90;;
76053;SDS011;64752;48.870;9.082;2023-04-25T01:56:32;3.70;;;2.75;;
76053;SDS011;64752;48.870;9.082;2023-04-25T01:58:57;6.05;;;3.00;;
76053;SDS011;64752;48.870;9.082;2023-04-25T02:01:23;5.35;;;2.90;;
76053;SDS011;64752;48.870;9.082;2023-04-25T02:03:48;5.22;;;2.80;;
76053;SDS011;64752;48.870;9.082;2023-04-25T02:06:13;5.45;;;2.88;;
76053;SDS011;64752;48.870;9.082;2023-04-25T02:08:38;4.38;;;2.75;;
76053;SDS011;64752;48.870;9.082;2023-04-25T02:11:04;4.18;;;2.55;;
76053;SDS011;64752;48.870;9.082;2023-04-25T02:13:29;6.13;;;2.85;;
76053;SDS011;64752;48.870;9.082;2023-04-25T02:15:55;5.20;;;2.72;;
76053;SDS011;64752;48.870;9.082;2023-04-25T02:18:20;4.07;;;2.78;;
76053;SDS011;64752;48.870;9.082;2023-04-25T02:20:46;4.88;;;2.70;;
76053;SDS011;64752;48.870;9.082;2023-04-25T02:23:11;8.95;;;3.05;;
76053;SDS011;64752;48.870;9.082;2023-04-25T02:25:37;7.38;;;3.05;;
76053;SDS011;64752;48.870;9.082;2023-04-25T02:28:02;8.77;;;3.20;;
76053;SDS011;64752;48.870;9.082;2023-04-25T02:30:27;6.50;;;3.03;;
76053;SDS011;64752;48.870;9.082;2023-04-25T02:32:52;5.97;;;3.22;;
76053;SDS011;64752;48.870;9.082;2023-04-25T02:35:18;6.88;;;3.25;;
76053;SDS011;64752;48.870;9.082;2023-04-25T02:37:43;7.20;;;3.45;;
76053;SDS011;64752;48.870;9.082;2023-04-25T02:40:10;9.60;;;3.20;;
76053;SDS011;64752;48.870;9.082;2023-04-25T02:42:35;4.78;;;3.00;;
76053;SDS011;64752;48.870;9.082;2023-04-25T02:45:00;6.97;;;3.05;;
76053;SDS011;64752;48.870;9.082;2023-04-25T02:47:26;6.15;;;3.60;;
76053;SDS011;64752;48.870;9.082;2023-04-25T02:49:51;6.13;;;3.58;;
76053;SDS011;64752;48.870;9.082;2023-04-25T02:52:16;5.43;;;3.40;;
76053;SDS011;64752;48.870;9.082;2023-04-25T02:54:41;6.05;;;3.08;;
76053;SDS011;64752;48.870;9.082;2023-04-25T02:57:07;5.93;;;3.42;;
76053;SDS011;64752;48.870;9.082;2023-04-25T02:59:32;4.93;;;3.05;;
76053;SDS011;64752;48.870;9.082;2023-04-25T03:01:57;3.80;;;2.90;;
76053;SDS011;64752;48.870;9.082;2023-04-25T03:04:22;6.20;;;3.03;;
76053;SDS011;64752;48.870;9.082;2023-04-25T03:06:49;3.67;;;2.75;;
76053;SDS011;64752;48.870;9.082;2023-04-25T03:09:15;3.92;;;2.75;;
76053;SDS011;64752;48.870;9.082;2023-04-25T03:11:40;4.20;;;2.78;;
76053;SDS011;64752;48.870;9.082;2023-04-25T03:14:05;5.85;;;3.20;;
76053;SDS011;64752;48.870;9.082;2023-04-25T03:16:30;5.93;;;2.80;;
76053;SDS011;64752;48.870;9.082;2023-04-25T03:18:56;5.07;;;3.05;;
76053;SDS011;64752;48.870;9.082;2023-04-25T03:21:22;4.97;;;3.17;;
76053;SDS011;64752;48.870;9.082;2023-04-25T03:23:47;7.32;;;3.10;;
76053;SDS011;64752;48.870;9.082;2023-04-25T03:26:12;6.40;;;3.33;;
76053;SDS011;64752;48.870;9.082;2023-04-25T03:28:37;6.07;;;2.95;;
76053;SDS011;64752;48.870;9.082;2023-04-25T03:31:04;5.15;;;3.10;;
76053;SDS011;64752;48.870;9.082;2023-04-25T03:33:29;5.00;;;3.15;;
76053;SDS011;64752;48.870;9.082;2023-04-25T03:35:55;6.05;;;3.40;;
76053;SDS011;64752;48.870;9.082;2023-04-25T03:38:20;5.20;;;3.33;;
76053;SDS011;64752;48.870;9.082;2023-04-25T03:40:45;5.25;;;3.42;;
76053;SDS011;64752;48.870;9.082;2023-04-25T03:43:11;9.20;;;3.88;;
76053;SDS011;64752;48.870;9.082;2023-04-25T03:45:36;8.38;;;3.28;;
76053;SDS011;64752;48.870;9.082;2023-04-25T03:48:01;6.22;;;3.78;;
76053;SDS011;64752;48.870;9.082;2023-04-25T03:50:26;7.05;;;3.85;;
76053;SDS011;64752;48.870;9.082;2023-04-25T03:52:52;5.97;;;3.78;;
76053;SDS011;64752;48.870;9.082;2023-04-25T03:55:17;6.77;;;3.63;;
76053;SDS011;64752;48.870;9.082;2023-04-25T03:57:44;5.55;;;3.80;;
76053;SDS011;64752;48.870;9.082;2023-04-25T04:00:13;5.00;;;3.85;;
76053;SDS011;64752;48.870;9.082;2023-04-25T04:02:39;5.88;;;4.35;;
76053;SDS011;64752;48.870;9.082;2023-04-25T04:05:04;8.00;;;5.10;;
76053;SDS011;64752;48.870;9.082;2023-04-25T04:07:30;8.23;;;4.30;;
76053;SDS011;64752;48.870;9.082;2023-04-25T04:09:57;5.57;;;4.63;;
76053;SDS011;64752;48.870;9.082;2023-04-25T04:12:23;7.60;;;4.85;;
76053;SDS011;64752;48.870;9.082;2023-04-25T04:14:48;6.63;;;4.63;;
76053;SDS011;64752;48.870;9.082;2023-04-25T04:17:13;8.38;;;5.07;;
76053;SDS011;64752;48.870;9.082;2023-04-25T04:19:38;8.73;;;5.10;;
76053;SDS011;64752;48.870;9.082;2023-04-25T04:22:03;6.47;;;4.63;;
76053;SDS011;64752;48.870;9.082;2023-04-25T04:24:29;6.88;;;5.20;;
76053;SDS011;64752;48.870;9.082;2023-04-25T04:26:54;8.25;;;4.90;;
76053;SDS011;64752;48.870;9.082;2023-04-25T04:29:20;8.32;;;4.68;;
76053;SDS011;64752;48.870;9.082;2023-04-25T04:31:48;7.50;;;4.40;;
76053;SDS011;64752;48.870;9.082;2023-04-25T04:34:14;9.03;;;4.97;;
76053;SDS011;64752;48.870;9.082;2023-04-25T04:36:41;7.57;;;5.07;;
76053;SDS011;64752;48.870;9.082;2023-04-25T04:39:06;5.50;;;4.22;;
76053;SDS011;64752;48.870;9.082;2023-04-25T04:41:32;6.57;;;4.43;;
76053;SDS011;64752;48.870;9.082;2023-04-25T04:43:57;8.98;;;4.72;;
76053;SDS011;64752;48.870;9.082;2023-04-25T04:46:22;5.93;;;4.00;;
76053;SDS011;64752;48.870;9.082;2023-04-25T04:48:49;7.28;;;4.70;;
76053;SDS011;64752;48.870;9.082;2023-04-25T04:51:14;7.03;;;4.43;;
76053;SDS011;64752;48.870;9.082;2023-04-25T04:53:40;7.88;;;3.70;;
76053;SDS011;64752;48.870;9.082;2023-04-25T04:56:05;4.60;;;3.92;;
76053;SDS011;64752;48.870;9.082;2023-04-25T04:58:31;8.13;;;4.22;;
76053;SDS011;64752;48.870;9.082;2023-04-25T05:00:56;7.40;;;4.20;;
76053;SDS011;64752;48.870;9.082;2023-04-25T05:03:21;5.80;;;4.00;;
76053;SDS011;64752;48.870;9.082;2023-04-25T05:05:47;6.07;;;4.10;;
76053;SDS011;64752;48.870;9.082;2023-04-25T05:08:12;7.20;;;4.30;;
76053;SDS011;64752;48.870;9.082;2023-04-25T05:10:37;5.70;;;4.07;;
76053;SDS011;64752;48.870;9.082;2023-04-25T05:13:02;7.80;;;4.15;;
76053;SDS011;64752;48.870;9.082;2023-04-25T05:15:28;6.13;;;4.30;;
76053;SDS011;64752;48.870;9.082;2023-04-25T05:17:53;6.63;;;4.20;;
76053;SDS011;64752;48.870;9.082;2023-04-25T05:20:18;6.60;;;4.13;;
76053;SDS011;64752;48.870;9.082;2023-04-25T05:22:44;7.15;;;4.68;;
76053;SDS011;64752;48.870;9.082;2023-04-25T05:25:09;6.05;;;3.90;;
76053;SDS011;64752;48.870;9.082;2023-04-25T05:27:35;6.13;;;3.38;;
76053;SDS011;64752;48.870;9.082;2023-04-25T05:30:00;5.57;;;3.80;;
76053;SDS011;64752;48.870;9.082;2023-04-25T05:32:26;7.28;;;4.57;;
76053;SDS011;64752;48.870;9.082;2023-04-25T05:34:52;7.40;;;4.70;;
76053;SDS011;64752;48.870;9.082;2023-04-25T05:37:17;7.38;;;4.30;;
76053;SDS011;64752;48.870;9.082;2023-04-25T05:39:42;10.75;;;4.70;;
76053;SDS011;64752;48.870;9.082;2023-04-25T05:42:08;5.38;;;4.40;;
76053;SDS011;64752;48.870;9.082;2023-04-25T05:44:33;6.07;;;4.63;;
76053;SDS011;64752;48.870;9.082;2023-04-25T05:46:58;9.10;;;4.63;;
76053;SDS011;64752;48.870;9.082;2023-04-25T05:49:24;6.43;;;4.40;;
76053;SDS011;64752;48.870;9.082;2023-04-25T05:51:49;7.68;;;4.50;;
76053;SDS011;64752;48.870;9.082;2023-04-25T05:54:14;6.55;;;4.07;;
76053;SDS011;64752;48.870;9.082;2023-04-25T05:56:39;5.60;;;3.45;;
76053;SDS011;64752;48.870;9.082;2023-04-25T05:59:05;8.55;;;4.18;;
76053;SDS011;64752;48.870;9.082;2023-04-25T06:01:31;6.63;;;3.90;;
76053;SDS011;64752;48.870;9.082;2023-04-25T06:03:56;6.38;;;3.63;;
76053;SDS011;64752;48.870;9.082;2023-04-25T06:06:21;5.95;;;3.67;;
76053;SDS011;64752;48.870;9.082;2023-04-25T06:08:46;4.93;;;3.47;;
76053;SDS011;64752;48.870;9.082;2023-04-25T06:11:12;5.55;;;3.55;;
76053;SDS011;64752;48.870;9.082;2023-04-25T06:13:37;5.32;;;3.80;;
76053;SDS011;64752;48.870;9.082;2023-04-25T06:16:02;4.85;;;3.03;;
76053;SDS011;64752;48.870;9.082;2023-04-25T06:18:27;5.85;;;3.72;;
76053;SDS011;64752;48.870;9.082;2023-04-25T06:20:53;4.75;;;3.53;;
76053;SDS011;64752;48.870;9.082;2023-04-25T06:23:18;5.45;;;2.90;;
76053;SDS011;64752;48.870;9.082;2023-04-25T06:25:43;5.35;;;3.53;;
76053;SDS011;64752;48.870;9.082;2023-04-25T06:28:09;4.63;;;2.97;;
76053;SDS011;64752;48.870;9.082;2023-04-25T06:30:34;5.15;;;2.75;;
76053;SDS011;64752;48.870;9.082;2023-04-25T06:33:00;5.60;;;3.17;;
76053;SDS011;64752;48.870;9.082;2023-04-25T06:35:25;4.10;;;2.92;;
76053;SDS011;64752;48.870;9.082;2023-04-25T06:37:50;5.05;;;3.25;;
76053;SDS011;64752;48.870;9.082;2023-04-25T06:40:15;5.05;;;3.65;;
76053;SDS011;64752;48.870;9.082;2023-04-25T06:42:42;8.80;;;3.20;;
76053;SDS011;64752;48.870;9.082;2023-04-25T06:45:07;3.63;;;3.10;;
76053;SDS011;64752;48.870;9.082;2023-04-25T06:47:33;3.70;;;3.05;;
76053;SDS011;64752;48.870;9.082;2023-04-25T06:49:58;4.43;;;3.15;;
76053;SDS011;64752;48.870;9.082;2023-04-25T06:52:23;4.07;;;3.03;;
76053;SDS011;64752;48.870;9.082;2023-04-25T06:54:49;4.75;;;3.25;;
76053;SDS011;64752;48.870;9.082;2023-04-25T06:57:14;4.63;;;3.60;;
76053;SDS011;64752;48.870;9.082;2023-04-25T06:59:39;4.57;;;3.40;;
76053;SDS011;64752;48.870;9.082;2023-04-25T07:02:05;6.28;;;3.78;;
76053;SDS011;64752;48.870;9.082;2023-04-25T07:04:31;5.72;;;3.80;;
76053;SDS011;64752;48.870;9.082;2023-04-25T07:06:56;4.97;;;3.92;;
76053;SDS011;64752;48.870;9.082;2023-04-25T07:09:21;5.13;;;4.07;;
76053;SDS011;64752;48.870;9.082;2023-04-25T07:11:47;5.30;;;4.10;;
76053;SDS011;64752;48.870;9.082;2023-04-25T07:14:12;6.15;;;4.13;;
76053;SDS011;64752;48.870;9.082;2023-04-25T07:16:37;5.32;;;3.95;;
76053;SDS011;64752;48.870;9.082;2023-04-25T07:19:03;5.22;;;3.83;;
76053;SDS011;64752;48.870;9.082;2023-04-25T07:21:28;5.82;;;3.88;;
76053;SDS011;64752;48.870;9.082;2023-04-25T07:23:53;4.90;;;3.75;;
76053;SDS011;64752;48.870;9.082;2023-04-25T07:26:18;5.55;;;4.32;;
76053;SDS011;64752;48.870;9.082;2023-04-25T07:28:44;5.32;;;3.85;;
76053;SDS011;64752;48.870;9.082;2023-04-25T07:31:09;5.18;;;3.90;;
76053;SDS011;64752;48.870;9.082;2023-04-25T07:33:34;5.90;;;3.97;;
76053;SDS011;64752;48.870;9.082;2023-04-25T07:36:00;6.60;;;4.10;;
76053;SDS011;64752;48.870;9.082;2023-04-25T07:38:25;5.15;;;3.70;;
76053;SDS011;64752;48.870;9.082;2023-04-25T07:40:50;5.97;;;3.90;;
76053;SDS011;64752;48.870;9.082;2023-04-25T07:43:16;5.88;;;3.97;;
76053;SDS011;64752;48.870;9.082;2023-04-25T07:45:44;4.38;;;3.53;;
76053;SDS011;64752;48.870;9.082;2023-04-25T07:48:09;5.15;;;4.05;;
76053;SDS011;64752;48.870;9.082;2023-04-25T07:50:35;5.60;;;4.22;;
76053;SDS011;64752;48.870;9.082;2023-04-25T07:53:00;6.93;;;4.20;;
76053;SDS011;64752;48.870;9.082;2023-04-25T07:55:25;5.85;;;4.50;;
76053;SDS011;64752;48.870;9.082;2023-04-25T07:57:51;7.72;;;4.25;;
76053;SDS011;64752;48.870;9.082;2023-04-25T08:00:16;5.38;;;4.35;;
76053;SDS011;64752;48.870;9.082;2023-04-25T08:02:42;6.25;;;5.00;;
76053;SDS011;64752;48.870;9.082;2023-04-25T08:05:07;5.77;;;4.47;;
76053;SDS011;64752;48.870;9.082;2023-04-25T08:07:36;8.40;;;4.47;;
76053;SDS011;64752;48.870;9.082;2023-04-25T08:10:01;7.63;;;5.00;;
76053;SDS011;64752;48.870;9.082;2023-04-25T08:12:27;6.97;;;5.45;;
76053;SDS011;64752;48.870;9.082;2023-04-25T08:14:52;6.07;;;4.90;;
76053;SDS011;64752;48.870;9.082;2023-04-25T08:17:18;8.23;;;4.88;;
76053;SDS011;64752;48.870;9.082;2023-04-25T08:19:43;8.52;;;5.63;;
76053;SDS011;64752;48.870;9.082;2023-04-25T08:22:08;8.63;;;5.60;;
76053;SDS011;64752;48.870;9.082;2023-04-25T08:24:34;8.00;;;5.38;;
76053;SDS011;64752;48.870;9.082;2023-04-25T08:26:59;7.25;;;5.03;;
76053;SDS011;64752;48.870;9.082;2023-04-25T08:29:24;6.45;;;4.65;;
76053;SDS011;64752;48.870;9.082;2023-04-25T08:31:50;5.47;;;4.57;;
76053;SDS011;64752;48.870;9.082;2023-04-25T08:34:17;7.35;;;4.90;;
76053;SDS011;64752;48.870;9.082;2023-04-25T08:36:42;7.13;;;4.73;;
76053;SDS011;64752;48.870;9.082;2023-04-25T08:39:08;5.18;;;4.45;;
76053;SDS011;64752;48.870;9.082;2023-04-25T08:41:33;5.55;;;3.83;;
76053;SDS011;64752;48.870;9.082;2023-04-25T08:43:58;7.10;;;4.47;;
76053;SDS011;64752;48.870;9.082;2023-04-25T08:46:25;6.43;;;4.50;;
76053;SDS011;64752;48.870;9.082;2023-04-25T08:48:51;6.18;;;4.38;;
76053;SDS011;64752;48.870;9.082;2023-04-25T08:51:21;6.65;;;4.38;;
76053;SDS011;64752;48.870;9.082;2023-04-25T08:53:48;5.72;;;4.88;;
76053;SDS011;64752;48.870;9.082;2023-04-25T08:56:14;5.57;;;4.00;;
76053;SDS011;64752;48.870;9.082;2023-04-25T08:58:41;7.22;;;4.47;;
76053;SDS011;64752;48.870;9.082;2023-04-25T09:01:07;5.75;;;4.35;;
76053;SDS011;64752;48.870;9.082;2023-04-25T09:03:33;6.63;;;4.68;;
76053;SDS011;64752;48.870;9.082;2023-04-25T09:05:59;8.02;;;5.80;;
76053;SDS011;64752;48.870;9.082;2023-04-25T09:08:25;8.27;;;5.55;;
76053;SDS011;64752;48.870;9.082;2023-04-25T09:10:51;8.88;;;5.82;;
76053;SDS011;64752;48.870;9.082;2023-04-25T09:13:23;8.65;;;6.70;;
76053;SDS011;64752;48.870;9.082;2023-04-25T09:15:50;10.32;;;5.93;;
76053;SDS011;64752;48.870;9.082;2023-04-25T09:18:25;9.48;;;5.97;;
76053;SDS011;64752;48.870;9.082;2023-04-25T09:20:54;7.70;;;5.80;;
76053;SDS011;64752;48.870;9.082;2023-04-25T09:23:20;9.23;;;6.45;;
76053;SDS011;64752;48.870;9.082;2023-04-25T09:25:50;7.63;;;6.07;;
76053;SDS011;64752;48.870;9.082;2023-04-25T09:28:15;8.25;;;6.45;;
76053;SDS011;64752;48.870;9.082;2023-04-25T09:30:41;8.70;;;7.05;;
76053;SDS011;64752;48.870;9.082;2023-04-25T09:33:06;8.80;;;6.13;;
76053;SDS011;64752;48.870;9.082;2023-04-25T09:35:39;6.63;;;5.32;;
76053;SDS011;64752;48.870;9.082;2023-04-25T09:38:13;8.70;;;6.65;;
76053;SDS011;64752;48.870;9.082;2023-04-25T09:43:10;7.95;;;5.85;;
76053;SDS011;64752;48.870;9.082;2023-04-25T09:45:43;7.22;;;5.05;;
76053;SDS011;64752;48.870;9.082;2023-04-25T09:48:15;10.93;;;6.68;;
76053;SDS011;64752;48.870;9.082;2023-04-25T09:50:41;11.02;;;7.97;;
76053;SDS011;64752;48.870;9.082;2023-04-25T09:53:06;9.80;;;5.55;;
76053;SDS011;64752;48.870;9.082;2023-04-25T09:55:32;8.05;;;6.30;;
76053;SDS011;64752;48.870;9.082;2023-04-25T09:57:59;8.05;;;5.63;;
76053;SDS011;64752;48.870;9.082;2023-04-25T10:00:28;9.93;;;7.95;;
76053;SDS011;64752;48.870;9.082;2023-04-25T10:02:53;10.15;;;7.43;;
76053;SDS011;64752;48.870;9.082;2023-04-25T10:05:19;9.02;;;7.20;;
76053;SDS011;64752;48.870;9.082;2023-04-25T10:07:45;11.63;;;7.95;;
76053;SDS011;64752;48.870;9.082;2023-04-25T10:10:10;11.00;;;8.02;;
76053;SDS011;64752;48.870;9.082;2023-04-25T10:12:37;13.27;;;8.15;;
76053;SDS011;64752;48.870;9.082;2023-04-25T10:15:04;14.18;;;10.77;;
76053;SDS011;64752;48.870;9.082;2023-04-25T10:17:31;11.00;;;8.57;;
76053;SDS011;64752;48.870;9.082;2023-04-25T10:19:56;15.57;;;9.10;;
76053;SDS011;64752;48.870;9.082;2023-04-25T10:22:36;10.07;;;8.10;;
76053;SDS011;64752;48.870;9.082;2023-04-25T10:25:02;8.65;;;6.55;;
76053;SDS011;64752;48.870;9.082;2023-04-25T10:27:31;10.55;;;7.20;;
76053;SDS011;64752;48.870;9.082;2023-04-25T10:30:09;8.68;;;6.43;;
76053;SDS011;64752;48.870;9.082;2023-04-25T10:32:39;7.47;;;6.30;;
76053;SDS011;64752;48.870;9.082;2023-04-25T10:40:22;8.52;;;5.70;;
76053;SDS011;64752;48.870;9.082;2023-04-25T10:42:47;6.78;;;4.85;;
76053;SDS011;64752;48.870;9.082;2023-04-25T10:45:13;7.20;;;5.00;;
76053;SDS011;64752;48.870;9.082;2023-04-25T10:47:43;5.80;;;4.90;;
76053;SDS011;64752;48.870;9.082;2023-04-25T10:50:09;6.93;;;4.63;;
76053;SDS011;64752;48.870;9.082;2023-04-25T10:52:34;7.63;;;5.13;;
76053;SDS011;64752;48.870;9.082;2023-04-25T10:55:00;8.35;;;5.95;;
76053;SDS011;64752;48.870;9.082;2023-04-25T10:59:54;7.28;;;5.43;;
76053;SDS011;64752;48.870;9.082;2023-04-25T11:02:23;7.28;;;5.40;;
76053;SDS011;64752;48.870;9.082;2023-04-25T11:04:51;5.97;;;5.10;;
76053;SDS011;64752;48.870;9.082;2023-04-25T11:10:03;7.25;;;4.63;;
76053;SDS011;64752;48.870;9.082;2023-04-25T11:12:30;6.82;;;4.55;;
76053;SDS011;64752;48.870;9.082;2023-04-25T11:15:13;7.20;;;5.07;;
76053;SDS011;64752;48.870;9.082;2023-04-25T11:17:39;5.38;;;4.20;;
76053;SDS011;64752;48.870;9.082;2023-04-25T11:20:06;5.68;;;4.38;;
76053;SDS011;64752;48.870;9.082;2023-04-25T11:22:33;5.90;;;4.60;;
76053;SDS011;64752;48.870;9.082;2023-04-25T11:25:04;5.47;;;3.97;;
76053;SDS011;64752;48.870;9.082;2023-04-25T11:27:29;5.93;;;3.45;;
76053;SDS011;64752;48.870;9.082;2023-04-25T11:29:54;4.15;;;2.97;;
76053;SDS011;64752;48.870;9.082;2023-04-25T11:32:20;7.90;;;4.22;;
76053;SDS011;64752;48.870;9.082;2023-04-25T11:34:45;5.35;;;3.63;;
76053;SDS011;64752;48.870;9.082;2023-04-25T11:37:14;5.38;;;3.78;;
76053;SDS011;64752;48.870;9.082;2023-04-25T11:39:43;5.03;;;3.78;;
76053;SDS011;64752;48.870;9.082;2023-04-25T11:42:08;5.78;;;4.03;;
76053;SDS011;64752;48.870;9.082;2023-04-25T11:44:34;4.65;;;3.90;;
76053;SDS011;64752;48.870;9.082;2023-04-25T11:46:59;5.75;;;4.40;;
76053;SDS011;64752;48.870;9.082;2023-04-25T11:49:25;6.18;;;4.65;;
76053;SDS011;64752;48.870;9.082;2023-04-25T11:51:55;9.63;;;6.88;;
76053;SDS011;64752;48.870;9.082;2023-04-25T11:54:20;8.07;;;4.90;;
76053;SDS011;64752;48.870;9.082;2023-04-25T11:56:46;8.90;;;5.13;;
76053;SDS011;64752;48.870;9.082;2023-04-25T11:59:11;6.40;;;5.22;;
76053;SDS011;64752;48.870;9.082;2023-04-25T12:01:37;9.75;;;5.35;;
76053;SDS011;64752;48.870;9.082;2023-04-25T12:06:41;9.60;;;5.63;;
76053;SDS011;64752;48.870;9.082;2023-04-25T12:09:10;12.47;;;5.70;;
76053;SDS011;64752;48.870;9.082;2023-04-25T12:11:42;9.55;;;5.30;;
76053;SDS011;64752;48.870;9.082;2023-04-25T12:14:08;7.22;;;5.40;;
76053;SDS011;64752;48.870;9.082;2023-04-25T12:16:40;7.28;;;4.72;;
76053;SDS011;64752;48.870;9.082;2023-04-25T12:19:09;7.63;;;4.93;;
76053;SDS011;64752;48.870;9.082;2023-04-25T12:21:35;5.53;;;4.28;;
76053;SDS011;64752;48.870;9.082;2023-04-25T12:24:10;6.03;;;3.80;;
76053;SDS011;64752;48.870;9.082;2023-04-25T12:26:52;6.13;;;3.80;;
76053;SDS011;64752;48.870;9.082;2023-04-25T12:29:19;6.00;;;3.70;;
76053;SDS011;64752;48.870;9.082;2023-04-25T12:31:45;6.15;;;3.78;;
76053;SDS011;64752;48.870;9.082;2023-04-25T12:34:11;6.53;;;4.15;;
76053;SDS011;64752;48.870;9.082;2023-04-25T12:36:36;5.88;;;4.38;;
76053;SDS011;64752;48.870;9.082;2023-04-25T12:39:02;5.13;;;3.88;;
76053;SDS011;64752;48.870;9.082;2023-04-25T12:41:29;6.55;;;3.80;;
76053;SDS011;64752;48.870;9.082;2023-04-25T12:43:54;6.10;;;4.10;;
76053;SDS011;64752;48.870;9.082;2023-04-25T12:46:20;7.93;;;4.75;;
76053;SDS011;64752;48.870;9.082;2023-04-25T12:48:45;8.87;;;4.60;;
76053;SDS011;64752;48.870;9.082;2023-04-25T12:51:11;7.30;;;4.40;;
76053;SDS011;64752;48.870;9.082;2023-04-25T12:53:36;9.90;;;5.57;;
76053;SDS011;64752;48.870;9.082;2023-04-25T12:56:02;9.43;;;5.68;;
76053;SDS011;64752;48.870;9.082;2023-04-25T12:58:28;8.50;;;5.70;;
76053;SDS011;64752;48.870;9.082;2023-04-25T13:00:53;9.50;;;5.43;;
76053;SDS011;64752;48.870;9.082;2023-04-25T13:03:18;7.07;;;4.80;;
76053;SDS011;64752;48.870;9.082;2023-04-25T13:05:44;10.10;;;6.47;;
76053;SDS011;64752;48.870;9.082;2023-04-25T13:08:09;10.63;;;6.40;;
76053;SDS011;64752;48.870;9.082;2023-04-25T13:10:34;12.10;;;7.15;;
76053;SDS011;64752;48.870;9.082;2023-04-25T13:13:01;11.98;;;7.70;;
76053;SDS011;64752;48.870;9.082;2023-04-25T13:15:26;12.97;;;8.20;;
76053;SDS011;64752;48.870;9.082;2023-04-25T13:17:51;11.55;;;7.70;;
76053;SDS011;64752;48.870;9.082;2023-04-25T13:20:17;13.55;;;8.52;;
76053;SDS011;64752;48.870;9.082;2023-04-25T13:22:43;11.75;;;8.25;;
76053;SDS011;64752;48.870;9.082;2023-04-25T13:25:10;15.18;;;9.23;;
76053;SDS011;64752;48.870;9.082;2023-04-25T13:27:36;11.80;;;8.77;;
76053;SDS011;64752;48.870;9.082;2023-04-25T13:30:04;14.32;;;9.45;;
76053;SDS011;64752;48.870;9.082;2023-04-25T13:32:41;12.05;;;8.35;;
76053;SDS011;64752;48.870;9.082;2023-04-25T13:35:07;11.38;;;7.50;;
76053;SDS011;64752;48.870;9.082;2023-04-25T13:37:33;10.02;;;6.93;;
76053;SDS011;64752;48.870;9.082;2023-04-25T13:39:59;10.02;;;6.43;;
76053;SDS011;64752;48.870;9.082;2023-04-25T13:42:25;9.95;;;6.75;;
76053;SDS011;64752;48.870;9.082;2023-04-25T13:44:51;9.90;;;6.65;;
76053;SDS011;64752;48.870;9.082;2023-04-25T13:47:16;8.70;;;6.47;;
76053;SDS011;64752;48.870;9.082;2023-04-25T13:49:41;11.60;;;6.13;;
76053;SDS011;64752;48.870;9.082;2023-04-25T13:52:06;8.67;;;5.93;;
76053;SDS011;64752;48.870;9.082;2023-04-25T13:54:32;7.13;;;5.20;;
76053;SDS011;64752;48.870;9.082;2023-04-25T13:56:58;9.18;;;5.20;;
76053;SDS011;64752;48.870;9.082;2023-04-25T13:59:24;7.37;;;4.50;;
76053;SDS011;64752;48.870;9.082;2023-04-25T14:01:50;6.97;;;4.60;;
76053;SDS011;64752;48.870;9.082;2023-04-25T14:04:15;6.05;;;4.07;;
76053;SDS011;64752;48.870;9.082;2023-04-25T14:06:41;6.33;;;4.40;;
76053;SDS011;64752;48.870;9.082;2023-04-25T14:09:06;6.50;;;4.30;;
76053;SDS011;64752;48.870;9.082;2023-04-25T14:11:32;7.97;;;4.37;;
76053;SDS011;64752;48.870;9.082;2023-04-25T14:13:57;9.03;;;4.57;;
76053;SDS011;64752;48.870;9.082;2023-04-25T14:16:22;10.80;;;4.60;;
76053;SDS011;64752;48.870;9.082;2023-04-25T14:18:48;9.50;;;4.40;;
76053;SDS011;64752;48.870;9.082;2023-04-25T14:21:13;7.07;;;4.43;;
76053;SDS011;64752;48.870;9.082;2023-04-25T14:23:38;8.60;;;4.57;;
76053;SDS011;64752;48.870;9.082;2023-04-25T14:26:04;10.07;;;4.93;;
76053;SDS011;64752;48.870;9.082;2023-04-25T14:28:29;6.97;;;4.83;;
76053;SDS011;64752;48.870;9.082;2023-04-25T14:30:54;7.20;;;4.90;;
76053;SDS011;64752;48.870;9.082;2023-04-25T14:33:20;7.47;;;5.00;;
76053;SDS011;64752;48.870;9.082;2023-04-25T14:35:45;10.23;;;5.10;;
76053;SDS011;64752;48.870;9.082;2023-04-25T14:38:11;10.63;;;5.10;;
76053;SDS011;64752;48.870;9.082;2023-04-25T14:40:36;8.40;;;5.13;;
76053;SDS011;64752;48.870;9.082;2023-04-25T14:43:02;9.88;;;4.70;;
76053;SDS011;64752;48.870;9.082;2023-04-25T14:45:27;6.60;;;4.10;;
76053;SDS011;64752;48.870;9.082;2023-04-25T14:47:53;7.63;;;4.77;;
76053;SDS011;64752;48.870;9.082;2023-04-25T14:50:18;6.93;;;4.43;;
76053;SDS011;64752;48.870;9.082;2023-04-25T14:52:43;7.77;;;4.70;;
76053;SDS011;64752;48.870;9.082;2023-04-25T14:55:09;9.13;;;4.78;;
76053;SDS011;64752;48.870;9.082;2023-04-25T14:57:35;7.73;;;4.33;;
76053;SDS011;64752;48.870;9.082;2023-04-25T15:00:00;10.20;;;4.53;;